createdAt,value
2023-05-18T00:01:32.102Z,100291.28
2023-05-18T00:03:58.581Z,100290.56
2023-05-18T00:06:25.386Z,100304.69
2023-05-18T00:08:51.906Z,100295.09
2023-05-18T00:11:18.238Z,100292.75
2023-05-18T00:13:44.919Z,100284.78
2023-05-18T00:16:11.384Z,100295.09
2023-05-18T00:18:38.444Z,100294.31
2023-05-18T00:21:04.949Z,100296.06
2023-05-18T00:23:31.404Z,100300.69
2023-05-18T00:26:02.431Z,100293.94
2023-05-18T00:28:29.300Z,100287.91
2023-05-18T00:30:56.307Z,100295.91
2023-05-18T00:33:23.408Z,100287.31
2023-05-18T00:35:49.756Z,100296.91
2023-05-18T00:38:16.322Z,100291.00
2023-05-18T00:40:42.779Z,100300.59
2023-05-18T00:43:09.982Z,100286.88
2023-05-18T00:45:36.704Z,100308.63
2023-05-18T00:48:03.239Z,100297.31
2023-05-18T00:50:29.955Z,100291.44
2023-05-18T00:52:56.394Z,100301.06
2023-05-18T00:55:22.780Z,100300.38
2023-05-18T00:57:49.306Z,100299.31
2023-05-18T01:00:15.960Z,100301.31
2023-05-18T01:02:42.439Z,100300.56
2023-05-18T01:05:09.938Z,100311.09
2023-05-18T01:07:38.242Z,100299.09
2023-05-18T01:10:05.409Z,100306.06
2023-05-18T01:12:37.793Z,100301.84
2023-05-18T01:15:07.462Z,100304.47
2023-05-18T01:17:50.995Z,100304.50
2023-05-18T01:20:43.805Z,100303.81
2023-05-18T01:23:46.016Z,100310.66
2023-05-18T01:26:17.627Z,100305.53
2023-05-18T01:28:46.065Z,100315.19
2023-05-18T01:31:14.255Z,100316.03
2023-05-18T01:33:40.697Z,100316.03
2023-05-18T01:36:07.521Z,100310.03
2023-05-18T01:38:34.641Z,100320.50
2023-05-18T01:41:23.935Z,100321.44
2023-05-18T01:43:56.423Z,100313.53
2023-05-18T01:46:34.702Z,100317.88
2023-05-18T01:49:13.558Z,100312.69
2023-05-18T01:51:45.572Z,100314.59
2023-05-18T01:54:16.764Z,100320.63
2023-05-18T01:56:44.999Z,100311.13
2023-05-18T01:59:12.167Z,100314.66
2023-05-18T02:01:38.643Z,100319.06
2023-05-18T02:04:09.831Z,100328.69
2023-05-18T02:06:36.710Z,100325.31
2023-05-18T02:09:04.565Z,100320.13
2023-05-18T02:11:31.058Z,100318.38
2023-05-18T02:13:57.408Z,100325.34
2023-05-18T02:16:24.137Z,100312.47
2023-05-18T02:18:50.673Z,100325.41
2023-05-18T02:21:17.084Z,100322.88
2023-05-18T02:23:43.676Z,100319.47
2023-05-18T02:26:10.373Z,100327.38
2023-05-18T02:28:36.792Z,100328.28
2023-05-18T02:31:08.068Z,100328.34
2023-05-18T02:33:34.450Z,100316.31
2023-05-18T02:36:00.878Z,100317.25
2023-05-18T02:38:27.215Z,100315.66
2023-05-18T02:40:53.747Z,100322.72
2023-05-18T02:43:20.165Z,100324.50
2023-05-18T02:45:46.890Z,100322.84
2023-05-18T02:48:13.322Z,100331.66
2023-05-18T02:50:39.941Z,100323.13
2023-05-18T02:53:06.533Z,100318.69
2023-05-18T02:55:33.011Z,100322.94
2023-05-18T02:57:59.426Z,100331.47
2023-05-18T03:00:26.004Z,100316.00
2023-05-18T03:02:52.406Z,100321.34
2023-05-18T03:05:18.968Z,100320.53
2023-05-18T03:07:45.547Z,100317.94
2023-05-18T03:10:11.898Z,100322.34
2023-05-18T03:12:38.441Z,100316.44
2023-05-18T03:15:05.408Z,100322.66
2023-05-18T03:17:31.772Z,100325.34
2023-05-18T03:19:58.187Z,100322.81
2023-05-18T03:22:24.609Z,100328.06
2023-05-18T03:24:51.006Z,100316.06
2023-05-18T03:27:17.430Z,100313.38
2023-05-18T03:29:44.679Z,100309.78
2023-05-18T03:32:11.297Z,100317.69
2023-05-18T03:34:37.715Z,100316.00
2023-05-18T03:37:04.312Z,100328.19
2023-05-18T03:39:30.673Z,100324.78
2023-05-18T03:41:57.500Z,100321.44
2023-05-18T03:44:23.858Z,100321.31
2023-05-18T03:46:50.485Z,100323.06
2023-05-18T03:49:16.869Z,100324.88
2023-05-18T03:51:43.583Z,100329.19
2023-05-18T03:54:09.928Z,100324.50
2023-05-18T03:56:36.368Z,100320.00
2023-05-18T03:59:02.724Z,100323.53
2023-05-18T04:01:31.549Z,100333.97
2023-05-18T04:03:59.102Z,100323.63
2023-05-18T04:06:25.852Z,100330.56
2023-05-18T04:08:53.106Z,100331.34
2023-05-18T04:11:19.531Z,100328.69
2023-05-18T04:13:46.281Z,100328.88
2023-05-18T04:16:13.147Z,100327.91
2023-05-18T04:18:42.609Z,100340.66
2023-05-18T04:21:09.041Z,100337.97
2023-05-18T04:23:35.468Z,100343.13
2023-05-18T04:26:01.835Z,100336.94
2023-05-18T04:28:28.506Z,100348.22
2023-05-18T04:30:54.909Z,100325.69
2023-05-18T04:33:21.247Z,100344.50
2023-05-18T04:35:48.126Z,100355.69
2023-05-18T04:38:14.477Z,100348.72
2023-05-18T04:40:41.191Z,100343.31
2023-05-18T04:43:07.544Z,100354.34
2023-05-18T04:45:34.030Z,100335.94
2023-05-18T04:48:00.695Z,100345.38
2023-05-18T04:50:27.345Z,100333.16
2023-05-18T04:52:54.114Z,100343.47
2023-05-18T04:55:22.663Z,100348.59
2023-05-18T04:57:50.256Z,100350.34
2023-05-18T05:00:17.531Z,100345.06
2023-05-18T05:02:44.012Z,100347.63
2023-05-18T05:05:10.913Z,100350.97
2023-05-18T05:07:37.412Z,100346.44
2023-05-18T05:10:04.231Z,100353.22
2023-05-18T05:12:30.711Z,100341.78
2023-05-18T05:14:57.165Z,100351.03
2023-05-18T05:17:24.759Z,100346.47
2023-05-18T05:19:51.140Z,100343.72
2023-05-18T05:22:17.564Z,100345.28
2023-05-18T05:24:43.971Z,100342.44
2023-05-18T05:27:10.582Z,100345.69
2023-05-18T05:29:37.076Z,100348.94
2023-05-18T05:32:03.743Z,100329.78
2023-05-18T05:34:30.703Z,100338.78
2023-05-18T05:36:57.138Z,100344.72
2023-05-18T05:39:23.488Z,100337.72
2023-05-18T05:41:49.921Z,100339.19
2023-05-18T05:44:16.277Z,100333.84
2023-05-18T05:46:43.023Z,100339.66
2023-05-18T05:49:09.465Z,100344.38
2023-05-18T05:51:36.194Z,100341.03
2023-05-18T05:54:03.313Z,100340.81
2023-05-18T05:56:29.923Z,100340.16
2023-05-18T05:58:56.538Z,100336.41
2023-05-18T06:01:22.963Z,100325.53
2023-05-18T06:03:49.329Z,100336.09
2023-05-18T06:06:15.761Z,100325.16
2023-05-18T06:08:42.120Z,100329.75
2023-05-18T06:11:10.786Z,100337.44
2023-05-18T06:13:38.440Z,100340.38
2023-05-18T06:16:05.023Z,100335.88
2023-05-18T06:18:31.467Z,100340.28
2023-05-18T06:20:57.952Z,100339.31
2023-05-18T06:23:24.415Z,100335.66
2023-05-18T06:25:50.998Z,100335.41
2023-05-18T06:28:17.844Z,100338.50
2023-05-18T06:30:44.585Z,100335.94
2023-05-18T06:33:11.238Z,100343.63
2023-05-18T06:35:37.707Z,100337.34
2023-05-18T06:38:04.054Z,100343.50
2023-05-18T06:40:30.653Z,100328.44
2023-05-18T06:42:57.165Z,100350.28
2023-05-18T06:45:23.516Z,100347.00
2023-05-18T06:47:49.873Z,100341.91
2023-05-18T06:50:16.553Z,100353.03
2023-05-18T06:52:44.866Z,100345.56
2023-05-18T06:55:11.313Z,100354.16
2023-05-18T06:57:37.920Z,100350.03
2023-05-18T07:00:07.774Z,100347.25
2023-05-18T07:02:34.538Z,100347.66
2023-05-18T07:05:00.897Z,100356.38
2023-05-18T07:07:27.486Z,100349.19
2023-05-18T07:09:53.844Z,100352.72
2023-05-18T07:12:20.321Z,100324.25
2023-05-18T07:14:46.760Z,100339.69
2023-05-18T07:17:13.121Z,100350.50
2023-05-18T07:19:39.748Z,100349.72
2023-05-18T07:22:06.175Z,100356.50
2023-05-18T07:24:32.778Z,100352.00
2023-05-18T07:27:00.908Z,100353.41
2023-05-18T07:29:29.829Z,100358.31
2023-05-18T07:31:56.320Z,100351.63
2023-05-18T07:34:24.006Z,100350.41
2023-05-18T07:36:51.007Z,100342.09
2023-05-18T07:39:19.078Z,100345.22
2023-05-18T07:41:46.405Z,100347.47
2023-05-18T07:44:13.457Z,100344.91
2023-05-18T07:46:40.363Z,100341.59
2023-05-18T07:49:06.942Z,100336.00
2023-05-18T07:51:33.372Z,100339.19
2023-05-18T07:53:59.988Z,100329.41
2023-05-18T07:56:26.444Z,100324.25
2023-05-18T07:58:52.793Z,100324.84
2023-05-18T08:01:19.496Z,100320.66
2023-05-18T08:03:45.953Z,100325.41
2023-05-18T08:06:12.504Z,100324.06
2023-05-18T08:08:41.702Z,100320.78
2023-05-18T08:11:08.118Z,100329.06
2023-05-18T08:13:34.474Z,100326.44
2023-05-18T08:16:11.018Z,100327.59
2023-05-18T08:18:38.469Z,100323.97
2023-05-18T08:21:04.884Z,100327.97
2023-05-18T08:23:31.354Z,100326.97
2023-05-18T08:25:57.721Z,100323.38
2023-05-18T08:28:24.164Z,100325.63
2023-05-18T08:30:50.582Z,100318.13
2023-05-18T08:33:16.986Z,100317.41
2023-05-18T08:35:43.468Z,100310.91
2023-05-18T08:38:10.077Z,100302.34
2023-05-18T08:40:47.057Z,100308.84
2023-05-18T08:43:21.482Z,100305.47
2023-05-18T08:45:47.910Z,100313.09
2023-05-18T08:48:16.143Z,100301.78
2023-05-18T08:50:44.254Z,100292.63
2023-05-18T08:53:11.293Z,100284.97
2023-05-18T08:55:38.348Z,100293.41
2023-05-18T08:58:07.818Z,100289.78
2023-05-18T09:00:35.195Z,100301.59
2023-05-18T09:03:04.927Z,100298.69
2023-05-18T09:05:31.816Z,100294.63
2023-05-18T09:07:59.124Z,100292.19
2023-05-18T09:10:25.890Z,100286.97
2023-05-18T09:12:52.762Z,100294.72
2023-05-18T09:15:19.520Z,100291.41
2023-05-18T09:17:45.944Z,100287.91
2023-05-18T09:20:12.842Z,100291.78
2023-05-18T09:22:39.808Z,100285.59
2023-05-18T09:25:09.666Z,100286.44
2023-05-18T09:27:36.951Z,100277.97
2023-05-18T09:30:05.131Z,100278.00
2023-05-18T09:32:35.055Z,100283.63
2023-05-18T09:35:05.799Z,100283.69
2023-05-18T09:37:33.060Z,100276.41
2023-05-18T09:40:00.973Z,100289.00
2023-05-18T09:42:37.169Z,100285.47
2023-05-18T09:45:15.619Z,100293.19
2023-05-18T09:47:42.173Z,100283.50
2023-05-18T09:50:09.557Z,100288.84
2023-05-18T09:52:41.929Z,100283.72
2023-05-18T09:55:08.806Z,100278.75
2023-05-18T09:57:40.597Z,100282.78
2023-05-18T10:00:08.432Z,100277.25
2023-05-18T10:02:38.325Z,100270.41
2023-05-18T10:05:05.276Z,100278.38
2023-05-18T10:07:35.205Z,100265.97
2023-05-18T10:10:02.967Z,100271.47
2023-05-18T10:12:29.519Z,100273.84
2023-05-18T10:14:55.875Z,100265.50
2023-05-18T10:17:24.589Z,100258.69
2023-05-18T10:19:55.851Z,100265.31
2023-05-18T10:22:23.413Z,100261.06
2023-05-18T10:24:51.414Z,100268.78
2023-05-18T10:27:19.098Z,100265.25
2023-05-18T10:29:46.054Z,100255.38
2023-05-18T10:32:12.982Z,100263.16
2023-05-18T10:34:41.965Z,100264.13
2023-05-18T10:37:11.912Z,100257.91
2023-05-18T10:39:41.275Z,100260.28
2023-05-18T10:42:10.469Z,100265.78
2023-05-18T10:44:37.486Z,100271.53
2023-05-18T10:47:06.122Z,100265.78
2023-05-18T10:49:33.928Z,100260.50
2023-05-18T10:52:02.848Z,100253.00
2023-05-18T10:54:30.062Z,100260.84
2023-05-18T10:56:56.788Z,100261.28
2023-05-18T10:59:23.655Z,100260.56
2023-05-18T11:01:52.595Z,100252.31
2023-05-18T11:04:24.494Z,100257.63
2023-05-18T11:06:58.990Z,100269.13
2023-05-18T11:09:26.549Z,100257.41
2023-05-18T11:12:00.040Z,100259.69
2023-05-18T11:14:30.919Z,100251.63
2023-05-18T11:17:25.817Z,100250.63
2023-05-18T11:20:04.463Z,100247.88
2023-05-18T11:22:46.780Z,100255.25
2023-05-18T11:25:25.212Z,100248.00
2023-05-18T11:27:53.560Z,100240.63
2023-05-18T11:30:35.712Z,100239.44
2023-05-18T11:33:17.214Z,100234.34
2023-05-18T11:36:03.895Z,100239.66
2023-05-18T11:38:47.018Z,100236.41
2023-05-18T11:41:29.412Z,100242.38
2023-05-18T11:44:04.533Z,100231.44
2023-05-18T11:46:31.266Z,100235.78
2023-05-18T11:49:03.160Z,100237.03
2023-05-18T11:51:31.711Z,100230.88
2023-05-18T11:53:59.599Z,100217.41
2023-05-18T11:56:26.744Z,100221.19
2023-05-18T11:59:11.983Z,100218.41
2023-05-18T12:01:38.667Z,100224.97
2023-05-18T12:04:06.108Z,100221.91
2023-05-18T12:06:33.627Z,100211.03
2023-05-18T12:09:00.990Z,100228.59
2023-05-18T12:11:27.672Z,100226.69
2023-05-18T12:13:54.920Z,100223.22
2023-05-18T12:16:22.479Z,100218.25
2023-05-18T12:18:49.990Z,100213.84
2023-05-18T12:21:24.569Z,100219.44
2023-05-18T12:24:00.838Z,100218.69
2023-05-18T12:26:27.366Z,100213.88
2023-05-18T12:28:54.567Z,100200.50
2023-05-18T12:31:21.664Z,100207.53
2023-05-18T12:33:48.745Z,100204.53
2023-05-18T12:36:15.814Z,100206.63
2023-05-18T12:38:42.525Z,100207.78
2023-05-18T12:41:08.976Z,100215.75
2023-05-18T12:43:38.239Z,100212.09
2023-05-18T12:46:05.258Z,100203.53
2023-05-18T12:48:44.987Z,100208.69
2023-05-18T12:51:20.583Z,100202.00
2023-05-18T12:53:49.218Z,100187.66
2023-05-18T12:56:15.624Z,100196.56
2023-05-18T12:58:56.061Z,100195.03
2023-05-18T13:01:22.431Z,100194.47
2023-05-18T13:03:55.360Z,100184.06
2023-05-18T13:06:21.856Z,100190.56
2023-05-18T13:08:48.612Z,100191.25
2023-05-18T13:11:15.437Z,100194.69
2023-05-18T13:14:04.469Z,100197.00
2023-05-18T13:16:32.897Z,100190.22
2023-05-18T13:19:04.694Z,100189.72
2023-05-18T13:21:31.309Z,100183.72
2023-05-18T13:23:57.786Z,100183.13
2023-05-18T13:26:25.131Z,100178.81
2023-05-18T13:28:53.992Z,100181.88
2023-05-18T13:31:20.688Z,100179.75
2023-05-18T13:33:47.478Z,100176.03
2023-05-18T13:36:14.479Z,100179.81
2023-05-18T13:38:41.511Z,100173.72
2023-05-18T13:41:10.147Z,100174.06
2023-05-18T13:43:36.552Z,100167.22
2023-05-18T13:46:04.659Z,100167.91
2023-05-18T13:48:31.068Z,100157.19
2023-05-18T13:50:57.528Z,100161.31
2023-05-18T13:53:24.061Z,100160.63
2023-05-18T13:55:50.550Z,100162.56
2023-05-18T13:58:17.001Z,100160.75
2023-05-18T14:00:43.631Z,100163.78
2023-05-18T14:03:10.251Z,100152.97
2023-05-18T14:05:37.189Z,100153.94
2023-05-18T14:08:03.677Z,100151.78
2023-05-18T14:10:30.265Z,100155.31
2023-05-18T14:12:56.861Z,100152.53
2023-05-18T14:15:23.323Z,100144.91
2023-05-18T14:17:50.163Z,100145.88
2023-05-18T14:20:16.552Z,100140.19
2023-05-18T14:22:42.973Z,100133.84
2023-05-18T14:25:09.579Z,100127.53
2023-05-18T14:27:36.013Z,100129.38
2023-05-18T14:30:04.689Z,100126.25
2023-05-18T14:32:31.236Z,100133.91
2023-05-18T14:34:57.694Z,100134.59
2023-05-18T14:37:24.136Z,100132.84
2023-05-18T14:39:50.559Z,100132.72
2023-05-18T14:42:16.995Z,100133.81
2023-05-18T14:44:43.389Z,100137.91
2023-05-18T14:47:09.830Z,100135.31
2023-05-18T14:49:36.873Z,100137.91
2023-05-18T14:52:03.332Z,100127.50
2023-05-18T14:54:29.796Z,100126.06
2023-05-18T14:56:56.213Z,100116.63
2023-05-18T14:59:22.713Z,100126.34
2023-05-18T15:01:49.126Z,100127.84
2023-05-18T15:04:15.653Z,100130.25
2023-05-18T15:06:42.097Z,100132.34
2023-05-18T15:09:08.468Z,100127.16
2023-05-18T15:11:35.011Z,100127.53
2023-05-18T15:14:01.384Z,100118.44
2023-05-18T15:16:28.213Z,100122.19
2023-05-18T15:18:55.045Z,100112.75
2023-05-18T15:21:21.492Z,100110.94
2023-05-18T15:23:48.161Z,100125.44
2023-05-18T15:26:14.886Z,100128.19
2023-05-18T15:28:41.242Z,100124.09
2023-05-18T15:31:07.693Z,100121.56
2023-05-18T15:33:34.034Z,100122.19
2023-05-18T15:36:00.812Z,100123.75
2023-05-18T15:38:28.966Z,100126.28
2023-05-18T15:40:56.135Z,100126.00
2023-05-18T15:43:22.848Z,100113.63
2023-05-18T15:45:49.281Z,100116.66
2023-05-18T15:48:16.006Z,100117.34
2023-05-18T15:50:42.720Z,100110.53
2023-05-18T15:53:09.073Z,100120.97
2023-05-18T15:55:35.780Z,100119.16
2023-05-18T15:58:02.134Z,100110.06
2023-05-18T16:00:28.617Z,100100.00
2023-05-18T16:02:55.341Z,100109.53
2023-05-18T16:05:21.861Z,100103.69
2023-05-18T16:07:48.212Z,100107.91
2023-05-18T16:10:14.702Z,100093.78
2023-05-18T16:12:41.100Z,100090.44
2023-05-18T16:15:07.934Z,100103.59
2023-05-18T16:17:34.785Z,100095.41
2023-05-18T16:20:03.488Z,100097.13
2023-05-18T16:22:30.593Z,100095.25
2023-05-18T16:24:57.047Z,100094.19
2023-05-18T16:27:23.396Z,100096.28
2023-05-18T16:29:50.084Z,100103.94
2023-05-18T16:32:16.507Z,100100.16
2023-05-18T16:34:43.208Z,100093.09
2023-05-18T16:37:09.676Z,100091.59
2023-05-18T16:39:36.359Z,100094.63
2023-05-18T16:42:02.915Z,100083.41
2023-05-18T16:44:29.361Z,100086.78
2023-05-18T16:46:55.875Z,100080.00
2023-05-18T16:49:22.342Z,100082.66
2023-05-18T16:51:48.779Z,100092.75
2023-05-18T16:54:15.134Z,100090.16
2023-05-18T16:56:41.570Z,100097.66
2023-05-18T16:59:07.932Z,100088.97
2023-05-18T17:01:34.428Z,100096.25
2023-05-18T17:04:01.036Z,100103.47
2023-05-18T17:06:27.560Z,100096.28
2023-05-18T17:08:53.911Z,100094.16
2023-05-18T17:11:20.254Z,100099.34
2023-05-18T17:13:46.790Z,100093.53
2023-05-18T17:16:13.169Z,100098.97
2023-05-18T17:18:39.617Z,100102.75
2023-05-18T17:21:06.051Z,100101.28
2023-05-18T17:23:32.397Z,100096.81
2023-05-18T17:26:05.924Z,100100.41
2023-05-18T17:28:32.955Z,100101.03
2023-05-18T17:30:59.394Z,100101.03
2023-05-18T17:33:26.089Z,100097.75
2023-05-18T17:35:52.452Z,100111.03
2023-05-18T17:38:18.893Z,100111.66
2023-05-18T17:40:45.236Z,100108.03
2023-05-18T17:43:11.681Z,100111.53
2023-05-18T17:45:38.168Z,100109.16
2023-05-18T17:48:05.196Z,100116.31
2023-05-18T17:50:32.220Z,100114.03
2023-05-18T17:52:58.796Z,100114.16
2023-05-18T17:55:25.147Z,100117.09
2023-05-18T17:57:51.605Z,100123.19
2023-05-18T18:00:18.310Z,100122.88
2023-05-18T18:02:44.830Z,100113.69
2023-05-18T18:05:11.216Z,100120.88
2023-05-18T18:07:39.417Z,100123.00
2023-05-18T18:10:08.208Z,100116.66
2023-05-18T18:12:34.593Z,100123.44
2023-05-18T18:15:01.027Z,100111.06
2023-05-18T18:17:27.412Z,100124.44
2023-05-18T18:19:53.873Z,100119.44
2023-05-18T18:22:20.682Z,100119.66
2023-05-18T18:24:47.116Z,100122.75
2023-05-18T18:27:13.615Z,100119.97
2023-05-18T18:29:39.977Z,100114.38
2023-05-18T18:32:06.774Z,100120.53
2023-05-18T18:34:33.216Z,100121.34
2023-05-18T18:36:59.584Z,100118.28
2023-05-18T18:39:26.030Z,100123.28
2023-05-18T18:41:52.408Z,100119.88
2023-05-18T18:44:19.103Z,100127.50
2023-05-18T18:46:45.502Z,100128.97
2023-05-18T18:49:11.862Z,100128.13
2023-05-18T18:51:38.571Z,100133.28
2023-05-18T18:54:05.610Z,100135.53
2023-05-18T18:56:32.052Z,100147.47
2023-05-18T18:58:58.485Z,100145.09
2023-05-18T19:01:24.893Z,100156.28
2023-05-18T19:03:51.350Z,100154.50
2023-05-18T19:06:17.755Z,100147.72
2023-05-18T19:08:44.196Z,100157.47
2023-05-18T19:11:10.810Z,100146.78
2023-05-18T19:13:37.223Z,100154.25
2023-05-18T19:16:03.781Z,100151.56
2023-05-18T19:18:30.165Z,100158.34
2023-05-18T19:20:56.582Z,100160.84
2023-05-18T19:23:22.956Z,100161.69
2023-05-18T19:25:49.524Z,100158.94
2023-05-18T19:28:15.866Z,100167.66
2023-05-18T19:30:42.253Z,100169.75
2023-05-18T19:33:09.031Z,100172.22
2023-05-18T19:35:35.396Z,100173.72
2023-05-18T19:38:01.873Z,100180.63
2023-05-18T19:40:28.293Z,100173.19
2023-05-18T19:42:55.008Z,100171.88
2023-05-18T19:45:21.696Z,100170.94
2023-05-18T19:47:48.061Z,100162.63
2023-05-18T19:50:14.571Z,100168.59
2023-05-18T19:52:40.948Z,100169.63
2023-05-18T19:55:07.795Z,100171.50
2023-05-18T19:57:34.367Z,100170.84
2023-05-18T20:00:00.742Z,100164.44
2023-05-18T20:02:27.148Z,100161.59
2023-05-18T20:04:53.630Z,100178.78
2023-05-18T20:07:20.361Z,100184.34
2023-05-18T20:09:46.976Z,100183.91
2023-05-18T20:12:13.432Z,100181.78
2023-05-18T20:14:39.786Z,100183.78
2023-05-18T20:17:06.589Z,100181.47
2023-05-18T20:19:33.009Z,100193.75
2023-05-18T20:21:59.458Z,100188.75
2023-05-18T20:24:26.028Z,100176.94
2023-05-18T20:26:52.388Z,100180.50
2023-05-18T20:29:18.921Z,100190.97
2023-05-18T20:31:45.360Z,100178.63
2023-05-18T20:34:11.849Z,100181.94
2023-05-18T20:36:38.456Z,100187.03
2023-05-18T20:39:04.802Z,100183.78
2023-05-18T20:41:31.299Z,100186.69
2023-05-18T20:43:57.644Z,100191.88
2023-05-18T20:46:24.142Z,100196.38
2023-05-18T20:48:50.797Z,100191.16
2023-05-18T20:51:18.361Z,100190.25
2023-05-18T20:53:46.116Z,100183.34
2023-05-18T20:56:12.544Z,100190.06
2023-05-18T20:58:38.903Z,100184.03
2023-05-18T21:01:05.493Z,100183.16
2023-05-18T21:03:32.689Z,100179.69
2023-05-18T21:05:59.070Z,100185.41
2023-05-18T21:08:25.449Z,100176.56
2023-05-18T21:10:51.799Z,100178.41
2023-05-18T21:13:18.242Z,100179.81
2023-05-18T21:15:44.635Z,100184.31
2023-05-18T21:18:11.134Z,100181.03
2023-05-18T21:20:37.887Z,100186.06
2023-05-18T21:23:04.440Z,100182.16
2023-05-18T21:25:30.894Z,100190.16
2023-05-18T21:27:57.316Z,100190.25
2023-05-18T21:30:23.744Z,100186.91
2023-05-18T21:32:50.337Z,100192.44
2023-05-18T21:35:16.881Z,100189.97
2023-05-18T21:37:43.424Z,100191.69
2023-05-18T21:40:10.066Z,100189.41
2023-05-18T21:42:37.080Z,100198.41
2023-05-18T21:45:04.100Z,100196.03
2023-05-18T21:47:30.817Z,100202.59
2023-05-18T21:49:57.267Z,100200.81
2023-05-18T21:52:23.876Z,100200.34
2023-05-18T21:54:50.299Z,100192.81
2023-05-18T21:57:16.650Z,100184.34
2023-05-18T21:59:43.266Z,100204.16
2023-05-18T22:02:09.690Z,100193.09
2023-05-18T22:04:36.460Z,100198.53
2023-05-18T22:07:03.105Z,100195.88
2023-05-18T22:09:29.485Z,100201.84
2023-05-18T22:11:56.196Z,100190.69
2023-05-18T22:14:22.565Z,100196.59
2023-05-18T22:16:49.029Z,100194.28
2023-05-18T22:19:15.615Z,100202.19
2023-05-18T22:21:42.338Z,100199.97
2023-05-18T22:24:08.754Z,100201.22
2023-05-18T22:26:35.207Z,100198.41
2023-05-18T22:29:01.584Z,100178.84
2023-05-18T22:31:28.359Z,100187.88
2023-05-18T22:33:55.357Z,100200.63
2023-05-18T22:36:21.935Z,100195.53
2023-05-18T22:38:48.419Z,100185.91
2023-05-18T22:41:15.308Z,100182.81
2023-05-18T22:43:42.153Z,100192.50
2023-05-18T22:46:08.577Z,100190.78
2023-05-18T22:48:34.976Z,100193.66
2023-05-18T22:51:01.409Z,100193.66
2023-05-18T22:53:27.763Z,100187.97
2023-05-18T22:55:54.126Z,100190.66
2023-05-18T22:58:20.599Z,100191.84
2023-05-18T23:00:47.010Z,100181.63
2023-05-18T23:03:13.454Z,100186.88
2023-05-18T23:05:40.104Z,100185.50
2023-05-18T23:08:07.350Z,100172.50
2023-05-18T23:10:33.940Z,100181.31
2023-05-18T23:13:00.870Z,100180.72
2023-05-18T23:15:27.566Z,100179.00
2023-05-18T23:17:53.992Z,100179.63
2023-05-18T23:20:21.500Z,100191.91
2023-05-18T23:22:47.951Z,100186.28
2023-05-18T23:25:14.726Z,100189.75
2023-05-18T23:27:41.328Z,100186.34
2023-05-18T23:30:08.079Z,100180.25
2023-05-18T23:32:35.372Z,100182.66
2023-05-18T23:35:02.534Z,100181.03
2023-05-18T23:37:32.064Z,100183.03
2023-05-18T23:40:02.092Z,100175.28
2023-05-18T23:42:28.757Z,100176.97
2023-05-18T23:44:55.549Z,100181.09
2023-05-18T23:47:22.198Z,100173.34
2023-05-18T23:49:48.863Z,100171.88
2023-05-18T23:52:19.622Z,100174.41
2023-05-18T23:54:46.229Z,100169.31
2023-05-18T23:57:12.851Z,100163.38
2023-05-18T23:59:40.712Z,100166.00
